sensor_id;sensor_type;location;lat;lon;timestamp;P1;durP1;ratioP1;P2;durP2;ratioP2
47896;SDS011;39629;51.400;5.494;2023-03-01T00:02:11;11.18;;;4.60;;
47896;SDS011;39629;51.400;5.494;2023-03-01T00:07:13;10.98;;;5.32;;
47896;SDS011;39629;51.400;5.494;2023-03-01T00:12:16;9.43;;;4.93;;
47896;SDS011;39629;51.400;5.494;2023-03-01T00:17:17;10.02;;;5.20;;
47896;SDS011;39629;51.400;5.494;2023-03-01T00:22:19;10.43;;;5.00;;
47896;SDS011;39629;51.400;5.494;2023-03-01T00:27:22;9.02;;;4.53;;
47896;SDS011;39629;51.400;5.494;2023-03-01T00:32:23;11.68;;;5.03;;
47896;SDS011;39629;51.400;5.494;2023-03-01T00:37:25;9.70;;;4.55;;
47896;SDS011;39629;51.400;5.494;2023-03-01T00:42:29;8.77;;;4.22;;
47896;SDS011;39629;51.400;5.494;2023-03-01T00:47:31;9.00;;;4.65;;
47896;SDS011;39629;51.400;5.494;2023-03-01T00:52:33;8.32;;;4.32;;
47896;SDS011;39629;51.400;5.494;2023-03-01T00:57:35;9.52;;;4.50;;
47896;SDS011;39629;51.400;5.494;2023-03-01T01:02:37;10.48;;;5.03;;
47896;SDS011;39629;51.400;5.494;2023-03-01T01:07:39;7.43;;;4.20;;
47896;SDS011;39629;51.400;5.494;2023-03-01T01:12:42;8.18;;;4.28;;
47896;SDS011;39629;51.400;5.494;2023-03-01T01:17:44;10.95;;;4.50;;
47896;SDS011;39629;51.400;5.494;2023-03-01T01:22:45;8.95;;;4.40;;
47896;SDS011;39629;51.400;5.494;2023-03-01T01:27:48;7.47;;;3.70;;
47896;SDS011;39629;51.400;5.494;2023-03-01T01:32:50;9.25;;;4.47;;
47896;SDS011;39629;51.400;5.494;2023-03-01T01:37:51;9.55;;;4.65;;
47896;SDS011;39629;51.400;5.494;2023-03-01T01:42:54;7.43;;;3.92;;
47896;SDS011;39629;51.400;5.494;2023-03-01T01:47:57;9.52;;;4.75;;
47896;SDS011;39629;51.400;5.494;2023-03-01T01:53:02;10.15;;;4.53;;
47896;SDS011;39629;51.400;5.494;2023-03-01T01:58:05;9.73;;;4.20;;
47896;SDS011;39629;51.400;5.494;2023-03-01T02:03:12;8.80;;;4.47;;
47896;SDS011;39629;51.400;5.494;2023-03-01T02:08:19;8.75;;;4.13;;
47896;SDS011;39629;51.400;5.494;2023-03-01T02:13:23;9.70;;;4.55;;
47896;SDS011;39629;51.400;5.494;2023-03-01T02:18:25;8.27;;;3.83;;
47896;SDS011;39629;51.400;5.494;2023-03-01T02:23:27;7.75;;;4.18;;
47896;SDS011;39629;51.400;5.494;2023-03-01T02:28:31;9.32;;;4.35;;
47896;SDS011;39629;51.400;5.494;2023-03-01T02:33:35;10.98;;;4.78;;
47896;SDS011;39629;51.400;5.494;2023-03-01T02:38:39;11.20;;;4.60;;
47896;SDS011;39629;51.400;5.494;2023-03-01T02:43:42;8.77;;;4.57;;
47896;SDS011;39629;51.400;5.494;2023-03-01T02:48:45;9.20;;;4.70;;
47896;SDS011;39629;51.400;5.494;2023-03-01T02:53:50;9.10;;;4.63;;
47896;SDS011;39629;51.400;5.494;2023-03-01T02:59:01;9.40;;;3.60;;
47896;SDS011;39629;51.400;5.494;2023-03-01T03:04:04;10.20;;;4.70;;
47896;SDS011;39629;51.400;5.494;2023-03-01T03:09:08;8.25;;;4.28;;
47896;SDS011;39629;51.400;5.494;2023-03-01T03:14:12;11.52;;;4.68;;
47896;SDS011;39629;51.400;5.494;2023-03-01T03:19:18;9.70;;;4.55;;
47896;SDS011;39629;51.400;5.494;2023-03-01T03:24:20;10.50;;;4.78;;
47896;SDS011;39629;51.400;5.494;2023-03-01T03:29:23;10.10;;;4.70;;
47896;SDS011;39629;51.400;5.494;2023-03-01T03:34:24;12.20;;;5.30;;
47896;SDS011;39629;51.400;5.494;2023-03-01T03:39:26;9.82;;;4.32;;
47896;SDS011;39629;51.400;5.494;2023-03-01T03:44:30;8.95;;;4.78;;
47896;SDS011;39629;51.400;5.494;2023-03-01T03:49:32;10.77;;;5.00;;
47896;SDS011;39629;51.400;5.494;2023-03-01T03:54:34;9.20;;;4.75;;
47896;SDS011;39629;51.400;5.494;2023-03-01T03:59:37;9.98;;;4.47;;
47896;SDS011;39629;51.400;5.494;2023-03-01T04:04:39;10.73;;;4.95;;
47896;SDS011;39629;51.400;5.494;2023-03-01T04:09:41;10.07;;;4.95;;
47896;SDS011;39629;51.400;5.494;2023-03-01T04:14:44;10.57;;;4.47;;
47896;SDS011;39629;51.400;5.494;2023-03-01T04:19:46;9.18;;;4.80;;
47896;SDS011;39629;51.400;5.494;2023-03-01T04:24:48;12.57;;;5.25;;
47896;SDS011;39629;51.400;5.494;2023-03-01T04:29:51;11.27;;;4.72;;
47896;SDS011;39629;51.400;5.494;2023-03-01T04:34:53;11.30;;;4.65;;
47896;SDS011;39629;51.400;5.494;2023-03-01T04:39:54;11.95;;;4.68;;
47896;SDS011;39629;51.400;5.494;2023-03-01T04:44:57;10.27;;;4.75;;
47896;SDS011;39629;51.400;5.494;2023-03-01T04:49:59;11.07;;;4.88;;
47896;SDS011;39629;51.400;5.494;2023-03-01T04:55:01;8.77;;;4.03;;
47896;SDS011;39629;51.400;5.494;2023-03-01T05:00:05;9.60;;;4.78;;
47896;SDS011;39629;51.400;5.494;2023-03-01T05:05:20;9.75;;;4.65;;
47896;SDS011;39629;51.400;5.494;2023-03-01T05:10:26;10.68;;;4.97;;
47896;SDS011;39629;51.400;5.494;2023-03-01T05:15:31;9.43;;;4.80;;
47896;SDS011;39629;51.400;5.494;2023-03-01T05:20:32;10.82;;;5.28;;
47896;SDS011;39629;51.400;5.494;2023-03-01T05:25:36;9.80;;;4.82;;
47896;SDS011;39629;51.400;5.494;2023-03-01T05:30:41;13.65;;;5.93;;
47896;SDS011;39629;51.400;5.494;2023-03-01T05:35:43;10.13;;;5.40;;
47896;SDS011;39629;51.400;5.494;2023-03-01T05:40:47;10.65;;;5.10;;
47896;SDS011;39629;51.400;5.494;2023-03-01T05:45:51;10.33;;;5.47;;
47896;SDS011;39629;51.400;5.494;2023-03-01T05:50:52;11.13;;;4.65;;
47896;SDS011;39629;51.400;5.494;2023-03-01T05:55:54;11.05;;;5.28;;
47896;SDS011;39629;51.400;5.494;2023-03-01T06:00:57;10.60;;;5.43;;
47896;SDS011;39629;51.400;5.494;2023-03-01T06:05:58;10.45;;;4.32;;
47896;SDS011;39629;51.400;5.494;2023-03-01T06:11:00;9.43;;;4.90;;
47896;SDS011;39629;51.400;5.494;2023-03-01T06:16:05;9.15;;;4.82;;
47896;SDS011;39629;51.400;5.494;2023-03-01T06:21:08;12.35;;;5.68;;
47896;SDS011;39629;51.400;5.494;2023-03-01T06:26:10;13.20;;;5.53;;
47896;SDS011;39629;51.400;5.494;2023-03-01T06:31:13;11.32;;;5.28;;
47896;SDS011;39629;51.400;5.494;2023-03-01T06:36:14;13.50;;;5.50;;
47896;SDS011;39629;51.400;5.494;2023-03-01T06:41:18;10.70;;;5.43;;
47896;SDS011;39629;51.400;5.494;2023-03-01T06:46:21;10.70;;;5.45;;
47896;SDS011;39629;51.400;5.494;2023-03-01T06:51:23;12.98;;;6.63;;
47896;SDS011;39629;51.400;5.494;2023-03-01T06:56:26;13.18;;;5.18;;
47896;SDS011;39629;51.400;5.494;2023-03-01T07:01:29;11.23;;;5.53;;
47896;SDS011;39629;51.400;5.494;2023-03-01T07:06:31;16.75;;;6.22;;
47896;SDS011;39629;51.400;5.494;2023-03-01T07:11:32;14.50;;;5.85;;
47896;SDS011;39629;51.400;5.494;2023-03-01T07:16:35;14.60;;;6.30;;
47896;SDS011;39629;51.400;5.494;2023-03-01T07:21:37;16.48;;;7.15;;
47896;SDS011;39629;51.400;5.494;2023-03-01T07:26:39;16.17;;;6.95;;
47896;SDS011;39629;51.400;5.494;2023-03-01T07:31:42;16.95;;;7.90;;
47896;SDS011;39629;51.400;5.494;2023-03-01T07:36:44;12.48;;;5.90;;
47896;SDS011;39629;51.400;5.494;2023-03-01T07:41:45;16.08;;;7.65;;
47896;SDS011;39629;51.400;5.494;2023-03-01T07:46:48;14.27;;;7.03;;
47896;SDS011;39629;51.400;5.494;2023-03-01T07:51:52;13.07;;;7.00;;
47896;SDS011;39629;51.400;5.494;2023-03-01T07:56:54;16.92;;;7.28;;
47896;SDS011;39629;51.400;5.494;2023-03-01T08:01:58;15.60;;;7.28;;
47896;SDS011;39629;51.400;5.494;2023-03-01T08:07:00;14.30;;;6.40;;
47896;SDS011;39629;51.400;5.494;2023-03-01T08:12:01;13.43;;;6.72;;
47896;SDS011;39629;51.400;5.494;2023-03-01T08:17:05;14.43;;;6.78;;
47896;SDS011;39629;51.400;5.494;2023-03-01T08:22:07;13.52;;;6.63;;
47896;SDS011;39629;51.400;5.494;2023-03-01T08:27:09;10.98;;;5.38;;
47896;SDS011;39629;51.400;5.494;2023-03-01T08:32:13;12.25;;;5.60;;
47896;SDS011;39629;51.400;5.494;2023-03-01T08:37:15;11.18;;;5.68;;
47896;SDS011;39629;51.400;5.494;2023-03-01T08:42:16;10.10;;;5.05;;
47896;SDS011;39629;51.400;5.494;2023-03-01T08:47:19;9.57;;;5.25;;
47896;SDS011;39629;51.400;5.494;2023-03-01T08:52:21;9.52;;;5.32;;
47896;SDS011;39629;51.400;5.494;2023-03-01T08:57:24;9.98;;;5.22;;
47896;SDS011;39629;51.400;5.494;2023-03-01T09:02:27;11.27;;;5.47;;
47896;SDS011;39629;51.400;5.494;2023-03-01T09:07:29;12.90;;;5.13;;
47896;SDS011;39629;51.400;5.494;2023-03-01T09:12:30;10.35;;;5.30;;
47896;SDS011;39629;51.400;5.494;2023-03-01T09:17:33;10.32;;;5.05;;
47896;SDS011;39629;51.400;5.494;2023-03-01T09:22:35;10.52;;;5.43;;
47896;SDS011;39629;51.400;5.494;2023-03-01T09:27:36;9.18;;;4.82;;
47896;SDS011;39629;51.400;5.494;2023-03-01T09:32:39;10.73;;;4.78;;
47896;SDS011;39629;51.400;5.494;2023-03-01T09:37:42;8.45;;;3.58;;
47896;SDS011;39629;51.400;5.494;2023-03-01T09:42:46;7.82;;;4.35;;
47896;SDS011;39629;51.400;5.494;2023-03-01T09:47:54;9.55;;;5.20;;
47896;SDS011;39629;51.400;5.494;2023-03-01T09:53:00;8.23;;;5.25;;
47896;SDS011;39629;51.400;5.494;2023-03-01T09:58:25;9.80;;;6.22;;
47896;SDS011;39629;51.400;5.494;2023-03-01T10:03:54;9.00;;;6.07;;
47896;SDS011;39629;51.400;5.494;2023-03-01T10:09:04;12.02;;;7.03;;
47896;SDS011;39629;51.400;5.494;2023-03-01T10:14:15;12.18;;;6.30;;
47896;SDS011;39629;51.400;5.494;2023-03-01T10:19:27;9.27;;;4.82;;
47896;SDS011;39629;51.400;5.494;2023-03-01T10:24:34;9.48;;;5.40;;
47896;SDS011;39629;51.400;5.494;2023-03-01T10:29:39;8.32;;;4.53;;
47896;SDS011;39629;51.400;5.494;2023-03-01T10:34:45;9.68;;;5.38;;
47896;SDS011;39629;51.400;5.494;2023-03-01T10:39:57;9.60;;;5.50;;
47896;SDS011;39629;51.400;5.494;2023-03-01T10:45:14;8.70;;;5.25;;
47896;SDS011;39629;51.400;5.494;2023-03-01T10:50:19;8.98;;;5.18;;
47896;SDS011;39629;51.400;5.494;2023-03-01T10:55:23;8.60;;;5.10;;
47896;SDS011;39629;51.400;5.494;2023-03-01T11:00:29;8.68;;;4.82;;
47896;SDS011;39629;51.400;5.494;2023-03-01T11:05:32;9.35;;;5.30;;
47896;SDS011;39629;51.400;5.494;2023-03-01T11:10:35;7.60;;;4.43;;
47896;SDS011;39629;51.400;5.494;2023-03-01T11:15:37;9.18;;;4.88;;
47896;SDS011;39629;51.400;5.494;2023-03-01T11:20:40;10.93;;;6.07;;
47896;SDS011;39629;51.400;5.494;2023-03-01T11:25:43;12.32;;;5.80;;
47896;SDS011;39629;51.400;5.494;2023-03-01T11:30:50;10.00;;;4.72;;
47896;SDS011;39629;51.400;5.494;2023-03-01T11:36:00;9.45;;;5.30;;
47896;SDS011;39629;51.400;5.494;2023-03-01T11:41:06;9.23;;;5.00;;
47896;SDS011;39629;51.400;5.494;2023-03-01T11:51:44;8.65;;;5.05;;
47896;SDS011;39629;51.400;5.494;2023-03-01T11:56:54;8.82;;;4.70;;
47896;SDS011;39629;51.400;5.494;2023-03-01T12:02:02;9.70;;;5.35;;
47896;SDS011;39629;51.400;5.494;2023-03-01T12:07:24;7.25;;;4.57;;
47896;SDS011;39629;51.400;5.494;2023-03-01T12:12:36;7.80;;;4.70;;
47896;SDS011;39629;51.400;5.494;2023-03-01T12:17:52;8.18;;;3.72;;
47896;SDS011;39629;51.400;5.494;2023-03-01T12:23:48;6.82;;;4.22;;
47896;SDS011;39629;51.400;5.494;2023-03-01T12:29:18;7.10;;;4.30;;
47896;SDS011;39629;51.400;5.494;2023-03-01T12:34:39;6.75;;;2.83;;
47896;SDS011;39629;51.400;5.494;2023-03-01T12:39:59;7.35;;;3.65;;
47896;SDS011;39629;51.400;5.494;2023-03-01T12:45:34;8.02;;;4.45;;
47896;SDS011;39629;51.400;5.494;2023-03-01T12:50:46;7.60;;;4.43;;
47896;SDS011;39629;51.400;5.494;2023-03-01T12:55:51;6.90;;;4.55;;
47896;SDS011;39629;51.400;5.494;2023-03-01T13:01:01;6.97;;;4.35;;
47896;SDS011;39629;51.400;5.494;2023-03-01T13:06:15;6.68;;;3.90;;
47896;SDS011;39629;51.400;5.494;2023-03-01T13:11:23;8.80;;;5.00;;
47896;SDS011;39629;51.400;5.494;2023-03-01T13:16:41;8.43;;;4.50;;
47896;SDS011;39629;51.400;5.494;2023-03-01T13:21:45;5.95;;;3.63;;
47896;SDS011;39629;51.400;5.494;2023-03-01T13:32:25;11.38;;;4.30;;
47896;SDS011;39629;51.400;5.494;2023-03-01T13:37:32;8.63;;;4.53;;
47896;SDS011;39629;51.400;5.494;2023-03-01T13:42:41;7.32;;;4.13;;
47896;SDS011;39629;51.400;5.494;2023-03-01T13:47:46;7.40;;;3.42;;
47896;SDS011;39629;51.400;5.494;2023-03-01T13:57:55;6.82;;;4.63;;
47896;SDS011;39629;51.400;5.494;2023-03-01T14:08:21;6.28;;;4.03;;
47896;SDS011;39629;51.400;5.494;2023-03-01T14:13:30;8.65;;;4.05;;
47896;SDS011;39629;51.400;5.494;2023-03-01T14:18:41;5.78;;;3.90;;
47896;SDS011;39629;51.400;5.494;2023-03-01T14:23:52;5.93;;;3.75;;
47896;SDS011;39629;51.400;5.494;2023-03-01T14:28:55;6.78;;;4.00;;
47896;SDS011;39629;51.400;5.494;2023-03-01T14:33:56;6.55;;;3.80;;
47896;SDS011;39629;51.400;5.494;2023-03-01T14:38:59;4.85;;;2.90;;
47896;SDS011;39629;51.400;5.494;2023-03-01T14:44:07;7.53;;;3.92;;
47896;SDS011;39629;51.400;5.494;2023-03-01T14:49:16;6.70;;;4.32;;
47896;SDS011;39629;51.400;5.494;2023-03-01T14:54:21;7.75;;;4.30;;
47896;SDS011;39629;51.400;5.494;2023-03-01T14:59:28;7.32;;;3.83;;
47896;SDS011;39629;51.400;5.494;2023-03-01T15:04:29;7.18;;;4.55;;
47896;SDS011;39629;51.400;5.494;2023-03-01T15:09:34;6.88;;;3.78;;
47896;SDS011;39629;51.400;5.494;2023-03-01T15:19:42;7.15;;;4.35;;
47896;SDS011;39629;51.400;5.494;2023-03-01T15:24:47;8.25;;;4.03;;
47896;SDS011;39629;51.400;5.494;2023-03-01T15:29:52;6.20;;;4.00;;
47896;SDS011;39629;51.400;5.494;2023-03-01T15:34:56;12.15;;;4.63;;
47896;SDS011;39629;51.400;5.494;2023-03-01T15:39:58;7.35;;;4.35;;
47896;SDS011;39629;51.400;5.494;2023-03-01T15:45:08;5.82;;;3.40;;
47896;SDS011;39629;51.400;5.494;2023-03-01T15:50:15;9.85;;;4.63;;
47896;SDS011;39629;51.400;5.494;2023-03-01T15:55:19;7.28;;;5.07;;
47896;SDS011;39629;51.400;5.494;2023-03-01T16:00:24;10.32;;;5.13;;
47896;SDS011;39629;51.400;5.494;2023-03-01T16:05:26;8.32;;;5.20;;
47896;SDS011;39629;51.400;5.494;2023-03-01T16:10:30;7.00;;;4.15;;
47896;SDS011;39629;51.400;5.494;2023-03-01T16:15:34;6.65;;;4.22;;
47896;SDS011;39629;51.400;5.494;2023-03-01T16:20:36;8.10;;;4.60;;
47896;SDS011;39629;51.400;5.494;2023-03-01T16:25:38;9.30;;;4.90;;
47896;SDS011;39629;51.400;5.494;2023-03-01T16:30:44;8.98;;;4.97;;
47896;SDS011;39629;51.400;5.494;2023-03-01T16:35:47;8.57;;;4.85;;
47896;SDS011;39629;51.400;5.494;2023-03-01T16:40:50;10.80;;;5.38;;
47896;SDS011;39629;51.400;5.494;2023-03-01T16:45:53;10.50;;;5.10;;
47896;SDS011;39629;51.400;5.494;2023-03-01T16:50:56;8.40;;;4.75;;
47896;SDS011;39629;51.400;5.494;2023-03-01T16:55:58;9.35;;;5.30;;
47896;SDS011;39629;51.400;5.494;2023-03-01T17:01:05;9.25;;;5.30;;
47896;SDS011;39629;51.400;5.494;2023-03-01T17:06:09;10.02;;;4.78;;
47896;SDS011;39629;51.400;5.494;2023-03-01T17:11:13;9.13;;;4.68;;
47896;SDS011;39629;51.400;5.494;2023-03-01T17:16:17;9.87;;;5.30;;
47896;SDS011;39629;51.400;5.494;2023-03-01T17:21:20;8.95;;;4.82;;
47896;SDS011;39629;51.400;5.494;2023-03-01T17:26:22;9.45;;;5.13;;
47896;SDS011;39629;51.400;5.494;2023-03-01T17:31:25;11.10;;;5.38;;
47896;SDS011;39629;51.400;5.494;2023-03-01T17:36:26;10.63;;;5.25;;
47896;SDS011;39629;51.400;5.494;2023-03-01T17:41:28;12.57;;;5.60;;
47896;SDS011;39629;51.400;5.494;2023-03-01T17:46:31;10.80;;;4.68;;
47896;SDS011;39629;51.400;5.494;2023-03-01T17:51:32;8.68;;;5.05;;
47896;SDS011;39629;51.400;5.494;2023-03-01T17:56:34;9.63;;;5.15;;
47896;SDS011;39629;51.400;5.494;2023-03-01T18:01:39;10.43;;;5.05;;
47896;SDS011;39629;51.400;5.494;2023-03-01T18:06:42;10.07;;;5.47;;
47896;SDS011;39629;51.400;5.494;2023-03-01T18:11:44;11.38;;;5.15;;
47896;SDS011;39629;51.400;5.494;2023-03-01T18:16:47;10.00;;;4.97;;
47896;SDS011;39629;51.400;5.494;2023-03-01T18:21:48;11.07;;;5.50;;
47896;SDS011;39629;51.400;5.494;2023-03-01T18:26:50;10.38;;;5.22;;
47896;SDS011;39629;51.400;5.494;2023-03-01T18:31:53;12.73;;;5.10;;
47896;SDS011;39629;51.400;5.494;2023-03-01T18:36:54;10.60;;;5.28;;
47896;SDS011;39629;51.400;5.494;2023-03-01T18:41:56;8.98;;;4.70;;
47896;SDS011;39629;51.400;5.494;2023-03-01T18:46:59;11.10;;;5.13;;
47896;SDS011;39629;51.400;5.494;2023-03-01T18:52:01;9.60;;;5.23;;
47896;SDS011;39629;51.400;5.494;2023-03-01T18:57:03;12.48;;;5.85;;
47896;SDS011;39629;51.400;5.494;2023-03-01T19:02:06;9.20;;;5.07;;
47896;SDS011;39629;51.400;5.494;2023-03-01T19:07:08;10.65;;;5.40;;
47896;SDS011;39629;51.400;5.494;2023-03-01T19:12:11;13.18;;;5.60;;
47896;SDS011;39629;51.400;5.494;2023-03-01T19:17:14;9.98;;;4.68;;
47896;SDS011;39629;51.400;5.494;2023-03-01T19:22:16;11.23;;;5.00;;
47896;SDS011;39629;51.400;5.494;2023-03-01T19:27:17;13.18;;;5.32;;
47896;SDS011;39629;51.400;5.494;2023-03-01T19:32:20;12.18;;;5.40;;
47896;SDS011;39629;51.400;5.494;2023-03-01T19:37:22;10.93;;;5.25;;
47896;SDS011;39629;51.400;5.494;2023-03-01T19:42:23;8.30;;;4.15;;
47896;SDS011;39629;51.400;5.494;2023-03-01T19:47:28;11.20;;;4.38;;
47896;SDS011;39629;51.400;5.494;2023-03-01T19:52:30;10.18;;;4.57;;
47896;SDS011;39629;51.400;5.494;2023-03-01T19:57:31;9.77;;;4.55;;
47896;SDS011;39629;51.400;5.494;2023-03-01T20:02:34;8.05;;;4.10;;
47896;SDS011;39629;51.400;5.494;2023-03-01T20:07:36;10.20;;;4.68;;
47896;SDS011;39629;51.400;5.494;2023-03-01T20:12:38;12.70;;;4.60;;
47896;SDS011;39629;51.400;5.494;2023-03-01T20:17:40;11.00;;;4.60;;
47896;SDS011;39629;51.400;5.494;2023-03-01T20:22:42;10.05;;;4.50;;
47896;SDS011;39629;51.400;5.494;2023-03-01T20:27:44;10.00;;;4.90;;
47896;SDS011;39629;51.400;5.494;2023-03-01T20:32:47;11.55;;;5.00;;
47896;SDS011;39629;51.400;5.494;2023-03-01T20:37:50;10.77;;;4.78;;
47896;SDS011;39629;51.400;5.494;2023-03-01T20:42:52;10.10;;;4.60;;
47896;SDS011;39629;51.400;5.494;2023-03-01T20:47:56;10.98;;;4.97;;
47896;SDS011;39629;51.400;5.494;2023-03-01T20:52:57;10.43;;;4.25;;
47896;SDS011;39629;51.400;5.494;2023-03-01T20:57:59;9.05;;;4.13;;
47896;SDS011;39629;51.400;5.494;2023-03-01T21:03:02;8.30;;;4.50;;
47896;SDS011;39629;51.400;5.494;2023-03-01T21:08:04;12.13;;;5.10;;
47896;SDS011;39629;51.400;5.494;2023-03-01T21:13:06;8.98;;;4.40;;
47896;SDS011;39629;51.400;5.494;2023-03-01T21:18:10;10.37;;;4.47;;
47896;SDS011;39629;51.400;5.494;2023-03-01T21:23:12;8.57;;;4.80;;
47896;SDS011;39629;51.400;5.494;2023-03-01T21:28:14;10.43;;;4.25;;
47896;SDS011;39629;51.400;5.494;2023-03-01T21:33:17;7.97;;;3.92;;
47896;SDS011;39629;51.400;5.494;2023-03-01T21:38:19;8.35;;;3.65;;
47896;SDS011;39629;51.400;5.494;2023-03-01T21:43:20;8.50;;;4.00;;
47896;SDS011;39629;51.400;5.494;2023-03-01T21:48:23;8.73;;;4.25;;
47896;SDS011;39629;51.400;5.494;2023-03-01T21:53:25;8.68;;;4.32;;
47896;SDS011;39629;51.400;5.494;2023-03-01T21:58:29;8.23;;;4.30;;
47896;SDS011;39629;51.400;5.494;2023-03-01T22:03:32;10.93;;;4.38;;
47896;SDS011;39629;51.400;5.494;2023-03-01T22:08:34;7.82;;;4.28;;
47896;SDS011;39629;51.400;5.494;2023-03-01T22:13:35;7.82;;;4.10;;
47896;SDS011;39629;51.400;5.494;2023-03-01T22:18:39;10.63;;;3.83;;
47896;SDS011;39629;51.400;5.494;2023-03-01T22:23:40;10.50;;;4.10;;
47896;SDS011;39629;51.400;5.494;2023-03-01T22:28:42;8.63;;;4.13;;
47896;SDS011;39629;51.400;5.494;2023-03-01T22:33:46;7.65;;;3.70;;
47896;SDS011;39629;51.400;5.494;2023-03-01T22:38:48;8.55;;;4.22;;
47896;SDS011;39629;51.400;5.494;2023-03-01T22:43:51;8.52;;;4.13;;
47896;SDS011;39629;51.400;5.494;2023-03-01T22:48:54;9.07;;;4.20;;
47896;SDS011;39629;51.400;5.494;2023-03-01T22:53:57;8.63;;;4.13;;
47896;SDS011;39629;51.400;5.494;2023-03-01T22:58:59;9.23;;;4.13;;
47896;SDS011;39629;51.400;5.494;2023-03-01T23:04:04;9.70;;;3.72;;
47896;SDS011;39629;51.400;5.494;2023-03-01T23:09:06;9.23;;;3.83;;
47896;SDS011;39629;51.400;5.494;2023-03-01T23:14:08;11.55;;;4.13;;
47896;SDS011;39629;51.400;5.494;2023-03-01T23:19:12;10.25;;;4.70;;
47896;SDS011;39629;51.400;5.494;2023-03-01T23:24:16;8.68;;;3.97;;
47896;SDS011;39629;51.400;5.494;2023-03-01T23:29:19;8.07;;;3.65;;
47896;SDS011;39629;51.400;5.494;2023-03-01T23:34:22;11.07;;;3.55;;
47896;SDS011;39629;51.400;5.494;2023-03-01T23:39:24;8.63;;;4.05;;
47896;SDS011;39629;51.400;5.494;2023-03-01T23:44:26;8.38;;;3.53;;
47896;SDS011;39629;51.400;5.494;2023-03-01T23:49:29;9.98;;;3.85;;
47896;SDS011;39629;51.400;5.494;2023-03-01T23:54:31;8.13;;;3.80;;
47896;SDS011;39629;51.400;5.494;2023-03-01T23:59:32;7.18;;;3.65;;
